Time,TemperatureF,DewpointF,PressureIn,WindDirection,WindDirectionDegrees,WindSpeedMPH,WindSpeedGustMPH,Humidity,HourlyPrecipIn,Conditions,Clouds,dailyrainin,SolarRadiationWatts/m^2,SoftwareType,DateUTC
2013-02-16 00:03:00,22.6,12.9,30.19,NNW,327,12.7,13.5,66,0.00,OVC,,0.00,0.0,WeatherDisplay:10.37,2013-02-16 06:03:00,
2013-02-16 00:08:00,22.6,12.9,30.19,NNW,327,12.7,13.5,66,0.00,OVC,,0.00,0.0,WeatherDisplay:10.37,2013-02-16 06:08:00,
2013-02-16 00:13:00,21.5,11.5,30.19,WNW,290,15.0,15.0,65,0.00,OVC,,0.00,0.0,WeatherDisplay:10.37,2013-02-16 06:13:00,
2013-02-16 00:18:00,22.6,12.9,30.19,NNW,327,12.7,13.5,66,0.00,OVC,,0.00,0.0,WeatherDisplay:10.37,2013-02-16 06:18:00,
2013-02-16 00:23:00,22.6,12.9,30.19,NNW,327,12.7,13.5,66,0.00,OVC,,0.00,0.0,WeatherDisplay:10.37,2013-02-16 06:23:00,
2013-02-16 00:28:00,20.8,11.6,30.20,NW,323,11.5,11.5,67,0.00,OVC,,0.00,0.0,WeatherDisplay:10.37,2013-02-16 06:28:00,
2013-02-16 00:33:00,20.6,11.7,30.20,NW,317,11.5,11.5,68,0.00,BKN,,0.00,0.0,WeatherDisplay:10.37,2013-02-16 06:33:00,
2013-02-16 00:38:00,22.6,12.9,30.19,NNW,327,12.7,13.5,66,0.00,BKN,,0.00,0.0,WeatherDisplay:10.37,2013-02-16 06:38:00,
2013-02-16 00:43:00,22.6,12.9,30.19,NNW,327,12.7,13.5,66,0.00,BKN,,0.00,0.0,WeatherDisplay:10.37,2013-02-16 06:43:00,
2013-02-16 00:48:00,22.6,12.9,30.19,NNW,327,12.7,13.5,66,0.00,SCT,,0.00,0.0,WeatherDisplay:10.37,2013-02-16 06:48:00,
2013-02-16 00:53:00,20.1,11.9,30.20,NNW,328,9.2,9.2,70,0.00,SCT,,0.00,0.0,WeatherDisplay:10.37,2013-02-16 06:53:00,
2013-02-16 00:58:00,22.6,12.9,30.19,NNW,327,12.7,13.5,66,0.00,SCT,,0.00,0.0,WeatherDisplay:10.37,2013-02-16 06:58:00,
2013-02-16 01:04:00,19.9,12.0,30.19,NW,311,11.5,11.5,71,0.00,CLR,,0.00,0.0,WeatherDisplay:10.37,2013-02-16 07:04:00,
2013-02-16 01:09:00,22.6,12.9,30.19,NNW,327,12.7,13.5,66,0.00,CLR,,0.00,0.0,WeatherDisplay:10.37,2013-02-16 07:09:00,
2013-02-16 01:14:00,22.6,12.9,30.19,NNW,327,12.7,13.5,66,0.00,CLR,,0.00,0.0,WeatherDisplay:10.37,2013-02-16 07:14:00,
2013-02-16 01:19:00,19.8,11.6,30.19,NW,313,11.5,11.5,70,0.00,CLR,,0.00,0.0,WeatherDisplay:10.37,2013-02-16 07:19:00,
2013-02-16 01:24:00,22.6,12.9,30.19,NNW,327,12.7,13.5,66,0.00,CLR,,0.00,0.0,WeatherDisplay:10.37,2013-02-16 07:24:00,
2013-02-16 01:29:00,22.6,12.9,30.19,NNW,327,12.7,13.5,66,0.00,CLR,,0.00,0.0,WeatherDisplay:10.37,2013-02-16 07:29:00,
2013-02-16 01:34:00,22.6,12.9,30.19,NNW,327,12.7,13.5,66,0.00,CLR,,0.00,0.0,WeatherDisplay:10.37,2013-02-16 07:34:00,
2013-02-16 01:39:00,20.2,12.3,30.19,NNW,328,11.5,11.5,71,0.00,CLR,,0.00,0.0,WeatherDisplay:10.37,2013-02-16 07:39:00,
2013-02-16 01:44:00,22.6,12.9,30.19,NNW,327,12.7,13.5,66,0.00,CLR,,0.00,0.0,WeatherDisplay:10.37,2013-02-16 07:44:00,
2013-02-16 01:49:00,20.2,11.0,30.19,WNW,302,11.5,11.5,67,0.00,BKN,,0.00,0.0,WeatherDisplay:10.37,2013-02-16 07:49:00,
2013-02-16 01:54:00,22.6,12.9,30.19,NNW,327,12.7,13.5,66,0.00,BKN,,0.00,0.0,WeatherDisplay:10.37,2013-02-16 07:54:00,
2013-02-16 01:59:00,22.6,12.9,30.19,NNW,327,12.7,13.5,66,0.00,BKN,,0.00,0.0,WeatherDisplay:10.37,2013-02-16 07:59:00,
2013-02-16 02:04:00,19.9,11.7,30.19,NW,317,11.5,11.5,70,0.00,OVC,,0.00,0.0,WeatherDisplay:10.37,2013-02-16 08:04:00,
2013-02-16 02:09:00,19.6,11.7,30.19,NW,313,10.4,10.4,71,0.00,OVC,,0.00,0.0,WeatherDisplay:10.37,2013-02-16 08:09:00,
2013-02-16 02:14:00,22.6,12.9,30.19,NNW,327,12.7,13.5,66,0.00,OVC,,0.00,0.0,WeatherDisplay:10.37,2013-02-16 08:14:00,
2013-02-16 02:19:00,22.6,12.9,30.19,NNW,327,12.7,13.5,66,0.00,OVC,,0.00,0.0,WeatherDisplay:10.37,2013-02-16 08:19:00,
2013-02-16 02:24:00,22.6,12.9,30.19,NNW,327,12.7,13.5,66,0.00,OVC,,0.00,0.0,WeatherDisplay:10.37,2013-02-16 08:24:00,
2013-02-16 02:29:00,18.8,11.6,30.18,NW,317,9.2,9.2,73,0.00,OVC,,0.00,0.0,WeatherDisplay:10.37,2013-02-16 08:29:00,
2013-02-16 02:34:00,18.7,11.5,30.18,NW,309,10.4,10.4,73,0.00,OVC,,0.00,0.0,WeatherDisplay:10.37,2013-02-16 08:34:00,
2013-02-16 02:39:00,22.6,12.9,30.19,NNW,327,12.7,13.5,66,0.00,OVC,,0.00,0.0,WeatherDisplay:10.37,2013-02-16 08:39:00,
2013-02-16 02:44:00,22.6,12.9,30.19,NNW,327,12.7,13.5,66,0.00,OVC,,0.00,0.0,WeatherDisplay:10.37,2013-02-16 08:44:00,
2013-02-16 02:49:00,22.6,12.9,30.19,NNW,327,12.7,13.5,66,0.00,BKN,,0.00,0.0,WeatherDisplay:10.37,2013-02-16 08:49:00,
2013-02-16 02:54:00,22.6,12.9,30.19,NNW,327,12.7,13.5,66,0.00,BKN,,0.00,0.0,WeatherDisplay:10.37,2013-02-16 08:54:00,
2013-02-16 02:59:00,22.6,12.9,30.19,NNW,327,12.7,13.5,66,0.00,BKN,,0.00,0.0,WeatherDisplay:10.37,2013-02-16 08:59:00,
2013-02-16 03:04:00,17.9,11.6,30.18,WNW,288,9.2,9.2,76,0.00,BKN,,0.00,0.0,WeatherDisplay:10.37,2013-02-16 09:04:00,
2013-02-16 03:09:00,22.6,12.9,30.19,NNW,327,12.7,13.5,66,0.00,BKN,,0.00,0.0,WeatherDisplay:10.37,2013-02-16 09:09:00,
2013-02-16 03:14:00,17.7,11.7,30.17,NW,309,11.5,11.5,77,0.00,BKN,,0.00,0.0,WeatherDisplay:10.37,2013-02-16 09:14:00,
2013-02-16 03:19:00,17.6,11.6,30.17,NW,320,5.8,6.5,77,0.00,SCT,,0.00,0.0,WeatherDisplay:10.37,2013-02-16 09:19:00,
2013-02-16 03:24:00,17.5,11.5,30.18,WNW,293,6.9,7.5,77,0.00,SCT,,0.00,0.0,WeatherDisplay:10.37,2013-02-16 09:24:00,
2013-02-16 03:29:00,17.4,11.4,30.17,NW,308,10.4,10.4,77,0.00,SCT,,0.00,0.0,WeatherDisplay:10.37,2013-02-16 09:29:00,
2013-02-16 03:34:00,17.5,11.5,30.18,WNW,293,3.5,7.5,77,0.00,CLR,,0.00,0.0,WeatherDisplay:10.37,2013-02-16 09:34:00,
2013-02-16 03:39:00,17.5,11.5,30.18,WNW,293,3.5,7.5,77,0.00,CLR,,0.00,0.0,WeatherDisplay:10.37,2013-02-16 09:39:00,
2013-02-16 03:44:00,17.5,11.5,30.18,WNW,293,3.5,7.5,77,0.00,CLR,,0.00,0.0,WeatherDisplay:10.37,2013-02-16 09:44:00,
2013-02-16 03:49:00,17.5,11.5,30.18,WNW,293,3.5,7.5,77,0.00,CLR,,0.00,0.0,WeatherDisplay:10.37,2013-02-16 09:49:00,
2013-02-16 03:54:00,17.0,11.0,30.17,WNW,296,11.5,11.5,77,0.00,CLR,,0.00,0.0,WeatherDisplay:10.37,2013-02-16 09:54:00,
2013-02-16 03:59:00,17.0,11.0,30.17,NW,319,10.4,10.4,77,0.00,CLR,,0.00,0.0,WeatherDisplay:10.37,2013-02-16 09:59:00,
2013-02-16 04:04:00,16.8,11.1,30.17,NW,315,11.5,11.5,78,0.00,CLR,,0.00,0.0,WeatherDisplay:10.37,2013-02-16 10:04:00,
2013-02-16 04:09:00,16.8,11.1,30.17,NW,307,9.2,9.2,78,0.00,CLR,,0.00,0.0,WeatherDisplay:10.37,2013-02-16 10:09:00,
2013-02-16 04:14:00,16.7,11.0,30.17,NW,317,11.5,11.5,78,0.00,CLR,,0.00,0.0,WeatherDisplay:10.37,2013-02-16 10:14:00,
2013-02-16 04:19:00,16.6,10.9,30.17,NW,309,10.4,10.4,78,0.00,CLR,,0.00,0.0,WeatherDisplay:10.37,2013-02-16 10:19:00,
2013-02-16 04:24:00,17.5,11.5,30.18,WNW,293,3.5,7.5,77,0.00,CLR,,0.00,0.0,WeatherDisplay:10.37,2013-02-16 10:24:00,
2013-02-16 04:29:00,17.5,11.5,30.18,WNW,293,3.5,7.5,77,0.00,CLR,,0.00,0.0,WeatherDisplay:10.37,2013-02-16 10:29:00,
2013-02-16 04:34:00,17.5,11.5,30.18,WNW,293,3.5,7.5,77,0.00,CLR,,0.00,0.0,WeatherDisplay:10.37,2013-02-16 10:34:00,
2013-02-16 04:39:00,17.5,11.5,30.18,WNW,293,3.5,7.5,77,0.00,CLR,,0.00,0.0,WeatherDisplay:10.37,2013-02-16 10:39:00,
2013-02-16 04:44:00,16.1,10.2,30.18,NW,324,10.4,10.4,77,0.00,CLR,,0.00,0.0,WeatherDisplay:10.37,2013-02-16 10:44:00,
2013-02-16 04:49:00,16.2,10.3,30.18,NW,308,6.9,6.9,77,0.00,CLR,,0.00,0.0,WeatherDisplay:10.37,2013-02-16 10:49:00,
2013-02-16 04:54:00,15.9,9.7,30.18,NW,311,13.8,13.8,76,0.00,CLR,,0.00,0.0,WeatherDisplay:10.37,2013-02-16 10:54:00,
2013-02-16 04:59:00,15.8,9.3,30.18,NW,311,11.5,11.5,75,0.00,CLR,,0.00,0.0,WeatherDisplay:10.37,2013-02-16 10:59:00,
2013-02-16 05:04:00,15.8,9.6,30.18,North,360,9.2,9.2,76,0.00,CLR,,0.00,0.0,WeatherDisplay:10.37,2013-02-16 11:04:00,
2013-02-16 05:09:00,15.6,9.4,30.18,NW,315,9.2,9.2,76,0.00,CLR,,0.00,0.0,WeatherDisplay:10.37,2013-02-16 11:09:00,
2013-02-16 05:14:00,15.5,9.3,30.18,NW,323,8.1,8.1,76,0.00,CLR,,0.00,0.0,WeatherDisplay:10.37,2013-02-16 11:14:00,
2013-02-16 05:19:00,15.3,9.4,30.18,NW,316,10.4,10.4,77,0.00,CLR,,0.00,0.0,WeatherDisplay:10.37,2013-02-16 11:19:00,
2013-02-16 05:24:00,16.2,10.3,30.18,NW,308,6.9,6.9,77,0.00,CLR,,0.00,0.0,WeatherDisplay:10.37,2013-02-16 11:24:00,
2013-02-16 05:29:00,15.2,8.7,30.19,NW,315,10.4,10.4,75,0.00,CLR,,0.00,0.0,WeatherDisplay:10.37,2013-02-16 11:29:00,
2013-02-16 05:34:00,15.1,8.9,30.19,NW,315,10.4,10.4,76,0.00,CLR,,0.00,0.0,WeatherDisplay:10.37,2013-02-16 11:34:00,
2013-02-16 05:39:00,16.2,10.3,30.18,NW,308,6.9,6.9,77,0.00,CLR,,0.00,0.0,WeatherDisplay:10.37,2013-02-16 11:39:00,
2013-02-16 05:44:00,16.2,10.3,30.18,NW,308,6.9,6.9,77,0.00,CLR,,0.00,0.0,WeatherDisplay:10.37,2013-02-16 11:44:00,
2013-02-16 05:49:00,14.7,8.5,30.19,NW,318,10.4,10.4,76,0.00,CLR,,0.00,0.0,WeatherDisplay:10.37,2013-02-16 11:49:00,
2013-02-16 05:54:00,14.6,8.1,30.19,NW,325,11.5,11.5,75,0.00,CLR,,0.00,0.0,WeatherDisplay:10.37,2013-02-16 11:54:00,
2013-02-16 05:59:00,16.2,10.3,30.18,NW,308,6.9,6.9,77,0.00,CLR,,0.00,0.0,WeatherDisplay:10.37,2013-02-16 11:59:00,
2013-02-16 06:04:00,16.2,10.3,30.18,NW,308,6.9,6.9,77,0.00,CLR,,0.00,0.0,WeatherDisplay:10.37,2013-02-16 12:04:00,
2013-02-16 06:09:00,16.2,10.3,30.18,NW,308,6.9,6.9,77,0.00,CLR,,0.00,0.0,WeatherDisplay:10.37,2013-02-16 12:09:00,
2013-02-16 06:14:00,14.2,7.4,30.19,NW,317,10.4,10.4,74,0.00,CLR,,0.00,0.0,WeatherDisplay:10.37,2013-02-16 12:14:00,
2013-02-16 06:19:00,14.1,7.6,30.19,NW,312,11.5,11.5,75,0.00,CLR,,0.00,0.0,WeatherDisplay:10.37,2013-02-16 12:19:00,
2013-02-16 06:24:00,14.1,7.6,30.19,NW,325,11.5,11.5,75,0.00,CLR,,0.00,0.0,WeatherDisplay:10.37,2013-02-16 12:24:00,
2013-02-16 06:29:00,16.2,10.3,30.18,NW,308,6.9,6.9,77,0.00,CLR,,0.00,0.0,WeatherDisplay:10.37,2013-02-16 12:29:00,
2013-02-16 06:34:00,13.9,7.7,30.19,NW,315,8.1,8.1,76,0.00,CLR,,0.00,0.0,WeatherDisplay:10.37,2013-02-16 12:34:00,
2013-02-16 06:39:00,16.2,10.3,30.18,NW,308,6.9,6.9,77,0.00,CLR,,0.00,0.0,WeatherDisplay:10.37,2013-02-16 12:39:00,
2013-02-16 06:44:00,16.2,10.3,30.18,NW,308,6.9,6.9,77,0.00,CLR,,0.00,0.0,WeatherDisplay:10.37,2013-02-16 12:44:00,
2013-02-16 06:49:00,13.7,7.8,30.20,WNW,300,9.2,9.2,77,0.00,CLR,,0.00,7.0,WeatherDisplay:10.37,2013-02-16 12:49:00,
2013-02-16 06:54:00,16.2,10.3,30.18,NW,308,6.9,6.9,77,0.00,CLR,,0.00,0.0,WeatherDisplay:10.37,2013-02-16 12:54:00,
2013-02-16 06:59:00,13.7,7.8,30.20,NW,323,6.9,6.9,77,0.00,CLR,,0.00,12.0,WeatherDisplay:10.37,2013-02-16 12:59:00,
2013-02-16 07:05:00,16.2,10.3,30.18,NW,308,6.9,6.9,77,0.00,CLR,,0.00,0.0,WeatherDisplay:10.37,2013-02-16 13:05:00,
2013-02-16 07:10:00,13.9,7.7,30.20,WNW,297,11.5,11.5,76,0.00,CLR,,0.00,21.0,WeatherDisplay:10.37,2013-02-16 13:10:00,
2013-02-16 07:15:00,14.1,7.6,30.20,NW,309,11.5,11.5,75,0.00,CLR,,0.00,28.0,WeatherDisplay:10.37,2013-02-16 13:15:00,
2013-02-16 07:20:00,14.3,7.8,30.20,NW,319,11.5,11.5,75,0.00,CLR,,0.00,40.0,WeatherDisplay:10.37,2013-02-16 13:20:00,
2013-02-16 07:25:00,16.2,10.3,30.18,NW,308,6.9,6.9,77,0.00,CLR,,0.00,0.0,WeatherDisplay:10.37,2013-02-16 13:25:00,
2013-02-16 07:30:00,16.2,10.3,30.18,NW,308,6.9,6.9,77,0.00,CLR,,0.00,0.0,WeatherDisplay:10.37,2013-02-16 13:30:00,
2013-02-16 07:35:00,14.8,8.0,30.20,NW,309,10.4,10.4,74,0.00,CLR,,0.00,81.0,WeatherDisplay:10.37,2013-02-16 13:35:00,
2013-02-16 07:40:00,14.9,8.1,30.20,NW,311,11.5,11.5,74,0.00,CLR,,0.00,97.0,WeatherDisplay:10.37,2013-02-16 13:40:00,
2013-02-16 07:45:00,15.0,7.9,30.20,WNW,290,10.4,10.4,73,0.00,CLR,,0.00,114.0,WeatherDisplay:10.37,2013-02-16 13:45:00,
2013-02-16 07:50:00,15.1,7.4,30.21,WNW,301,13.8,13.8,71,0.00,CLR,,0.00,134.0,WeatherDisplay:10.37,2013-02-16 13:50:00,
2013-02-16 07:55:00,15.3,7.6,30.20,WNW,298,10.4,10.4,71,0.00,CLR,,0.00,153.0,WeatherDisplay:10.37,2013-02-16 13:55:00,
2013-02-16 08:00:00,15.4,7.0,30.20,NW,308,12.7,12.7,69,0.00,CLR,,0.00,171.0,WeatherDisplay:10.37,2013-02-16 14:00:00,
2013-02-16 08:05:00,14.8,8.0,30.20,WNW,297,8.1,8.1,74,0.00,CLR,,0.00,90.0,WeatherDisplay:10.37,2013-02-16 14:05:00,
2013-02-16 08:10:00,14.8,8.0,30.20,WNW,297,8.1,8.1,74,0.00,CLR,,0.00,90.0,WeatherDisplay:10.37,2013-02-16 14:10:00,
2013-02-16 08:15:00,14.8,8.0,30.20,WNW,297,8.1,8.1,74,0.00,CLR,,0.00,90.0,WeatherDisplay:10.37,2013-02-16 14:15:00,
2013-02-16 08:20:00,16.3,7.6,30.21,WNW,298,10.4,10.4,68,0.00,CLR,,0.00,250.0,WeatherDisplay:10.37,2013-02-16 14:20:00,
2013-02-16 08:25:00,14.8,8.0,30.20,WNW,297,8.1,8.1,74,0.00,CLR,,0.00,90.0,WeatherDisplay:10.37,2013-02-16 14:25:00,
2013-02-16 08:30:00,14.8,8.0,30.20,WNW,297,8.1,8.1,74,0.00,CLR,,0.00,90.0,WeatherDisplay:10.37,2013-02-16 14:30:00,
2013-02-16 08:35:00,14.8,8.0,30.20,WNW,297,8.1,8.1,74,0.00,CLR,,0.00,90.0,WeatherDisplay:10.37,2013-02-16 14:35:00,
2013-02-16 08:40:00,14.8,8.0,30.20,WNW,297,8.1,8.1,74,0.00,CLR,,0.00,90.0,WeatherDisplay:10.37,2013-02-16 14:40:00,
2013-02-16 08:45:00,14.8,8.0,30.20,WNW,297,8.1,8.1,74,0.00,CLR,,0.00,90.0,WeatherDisplay:10.37,2013-02-16 14:45:00,
2013-02-16 08:50:00,17.2,7.8,30.20,NNW,338,12.7,12.7,66,0.00,CLR,,0.00,338.0,WeatherDisplay:10.37,2013-02-16 14:50:00,
2013-02-16 08:55:00,17.4,7.3,30.20,NW,326,13.8,13.8,64,0.00,CLR,,0.00,353.0,WeatherDisplay:10.37,2013-02-16 14:55:00,
2013-02-16 09:00:00,17.8,8.0,30.21,NNW,332,10.4,10.4,65,0.00,CLR,,0.00,367.0,WeatherDisplay:10.37,2013-02-16 15:00:00,
2013-02-16 09:05:00,14.8,8.0,30.20,WNW,297,8.1,8.1,74,0.00,CLR,,0.00,90.0,WeatherDisplay:10.37,2013-02-16 15:05:00,
2013-02-16 09:10:00,18.0,7.2,30.21,NW,311,12.0,12.0,62,0.00,CLR,,0.00,390.0,WeatherDisplay:10.37,2013-02-16 15:10:00,
2013-02-16 09:15:00,14.8,8.0,30.20,WNW,297,8.1,8.1,74,0.00,CLR,,0.00,90.0,WeatherDisplay:10.37,2013-02-16 15:15:00,
2013-02-16 09:20:00,14.8,8.0,30.20,WNW,297,8.1,8.1,74,0.00,CLR,,0.00,90.0,WeatherDisplay:10.37,2013-02-16 15:20:00,
2013-02-16 09:25:00,18.2,6.6,30.21,NW,317,14.0,14.0,60,0.00,CLR,,0.00,434.0,WeatherDisplay:10.37,2013-02-16 15:25:00,
2013-02-16 09:30:00,14.8,8.0,30.20,WNW,297,8.1,8.1,74,0.00,CLR,,0.00,90.0,WeatherDisplay:10.37,2013-02-16 15:30:00,
2013-02-16 09:35:00,18.5,6.5,30.21,NW,319,10.4,10.4,59,0.00,CLR,,0.00,468.0,WeatherDisplay:10.37,2013-02-16 15:35:00,
2013-02-16 09:40:00,18.7,6.0,30.21,NW,313,15.0,15.0,57,0.00,CLR,,0.00,485.0,WeatherDisplay:10.37,2013-02-16 15:40:00,
2013-02-16 09:45:00,14.8,8.0,30.20,WNW,297,8.1,8.1,74,0.00,CLR,,0.00,90.0,WeatherDisplay:10.37,2013-02-16 15:45:00,
2013-02-16 09:50:00,14.8,8.0,30.20,WNW,297,8.1,8.1,74,0.00,SCT,,0.00,90.0,WeatherDisplay:10.37,2013-02-16 15:50:00,
2013-02-16 09:55:00,14.8,8.0,30.20,WNW,297,8.1,8.1,74,0.00,SCT,,0.00,90.0,WeatherDisplay:10.37,2013-02-16 15:55:00,
2013-02-16 10:00:00,19.7,6.5,30.21,NW,313,10.4,10.4,56,0.00,SCT,,0.00,534.0,WeatherDisplay:10.37,2013-02-16 16:00:00,
2013-02-16 10:05:00,20.0,7.2,30.21,NW,307,14.0,14.0,57,0.00,SCT,,0.00,575.0,WeatherDisplay:10.37,2013-02-16 16:05:00,
2013-02-16 10:10:00,19.5,5.9,30.21,NW,309,15.0,15.0,55,0.00,SCT,,0.00,601.0,WeatherDisplay:10.37,2013-02-16 16:10:00,
2013-02-16 10:15:00,19.7,6.1,30.21,NW,320,12.7,12.7,55,0.00,SCT,,0.00,598.0,WeatherDisplay:10.37,2013-02-16 16:15:00,
2013-02-16 10:20:00,19.6,6.0,30.21,NW,318,6.9,9.3,55,0.00,SCT,,0.00,589.0,WeatherDisplay:10.37,2013-02-16 16:20:00,
2013-02-16 10:25:00,19.6,6.0,30.21,NW,318,6.9,9.3,55,0.00,SCT,,0.00,589.0,WeatherDisplay:10.37,2013-02-16 16:25:00,
2013-02-16 10:30:00,19.7,6.1,30.21,NNW,327,15.0,15.0,55,0.00,SCT,,0.00,624.0,WeatherDisplay:10.37,2013-02-16 16:30:00,
2013-02-16 10:35:00,19.6,6.0,30.21,NW,318,6.9,9.3,55,0.00,SCT,,0.00,589.0,WeatherDisplay:10.37,2013-02-16 16:35:00,
2013-02-16 10:40:00,19.6,6.0,30.21,NW,318,6.9,9.3,55,0.00,SCT,,0.00,589.0,WeatherDisplay:10.37,2013-02-16 16:40:00,
2013-02-16 10:45:00,19.6,6.0,30.21,NW,318,6.9,9.3,55,0.00,SCT,,0.00,589.0,WeatherDisplay:10.37,2013-02-16 16:45:00,
2013-02-16 10:50:00,19.6,6.0,30.21,NW,318,6.9,9.3,55,0.00,SCT,,0.00,589.0,WeatherDisplay:10.37,2013-02-16 16:50:00,
2013-02-16 10:55:00,20.5,7.7,30.21,WNW,294,9.2,9.2,57,0.00,SCT,,0.00,693.0,WeatherDisplay:10.37,2013-02-16 16:55:00,
2013-02-16 11:00:00,19.6,6.0,30.21,NW,318,6.9,9.3,55,0.00,SCT,,0.00,589.0,WeatherDisplay:10.37,2013-02-16 17:00:00,
2013-02-16 11:05:00,19.6,6.0,30.21,NW,318,6.9,9.3,55,0.00,SCT,,0.00,589.0,WeatherDisplay:10.37,2013-02-16 17:05:00,
2013-02-16 11:10:00,20.5,6.9,30.21,NW,317,14.0,14.0,55,0.00,SCT,,0.00,207.0,WeatherDisplay:10.37,2013-02-16 17:10:00,
2013-02-16 11:15:00,20.7,6.7,30.21,WNW,296,12.7,12.7,54,0.00,SCT,,0.00,796.0,WeatherDisplay:10.37,2013-02-16 17:15:00,
2013-02-16 11:20:00,21.3,7.2,30.20,WNW,288,13.0,13.0,54,0.00,SCT,,0.00,861.0,WeatherDisplay:10.37,2013-02-16 17:20:00,
2013-02-16 11:25:00,22.0,7.5,30.20,NW,315,13.8,13.8,53,0.00,SCT,,0.00,352.0,WeatherDisplay:10.37,2013-02-16 17:25:00,
2013-02-16 11:30:00,21.1,6.6,30.20,NW,323,16.1,16.1,53,0.00,SCT,,0.00,378.0,WeatherDisplay:10.37,2013-02-16 17:30:00,
2013-02-16 11:35:00,19.6,6.0,30.21,NW,318,6.9,9.3,55,0.00,SCT,,0.00,589.0,WeatherDisplay:10.37,2013-02-16 17:35:00,
2013-02-16 11:40:00,20.6,7.0,30.20,NW,322,13.8,13.8,55,0.00,SCT,,0.00,262.0,WeatherDisplay:10.37,2013-02-16 17:40:00,
2013-02-16 11:45:00,20.7,6.7,30.20,NW,322,6.9,7.4,54,0.00,SCT,,0.00,271.0,WeatherDisplay:10.37,2013-02-16 17:45:00,
2013-02-16 11:50:00,20.7,6.7,30.20,NW,322,6.9,7.4,54,0.00,SCT,,0.00,271.0,WeatherDisplay:10.37,2013-02-16 17:50:00,
2013-02-16 11:55:00,20.7,6.7,30.20,NW,322,6.9,7.4,54,0.00,SCT,,0.00,271.0,WeatherDisplay:10.37,2013-02-16 17:55:00,
2013-02-16 12:00:00,21.5,9.0,30.19,NW,304,12.7,12.7,58,0.00,SCT,,0.00,297.0,WeatherDisplay:10.37,2013-02-16 18:00:00,
2013-02-16 12:05:00,21.8,9.3,30.19,NNW,333,10.0,10.0,58,0.00,SCT,,0.00,404.0,WeatherDisplay:10.37,2013-02-16 18:05:00,
2013-02-16 12:10:00,21.8,8.1,30.19,West,269,13.8,13.8,55,0.00,SCT,,0.00,288.0,WeatherDisplay:10.37,2013-02-16 18:10:00,
2013-02-16 12:15:00,21.3,7.6,30.18,NW,308,12.7,12.7,55,0.00,SCT,,0.00,323.0,WeatherDisplay:10.37,2013-02-16 18:15:00,
2013-02-16 12:20:00,20.7,6.7,30.20,NW,322,6.9,7.4,54,0.00,SCT,,0.00,271.0,WeatherDisplay:10.37,2013-02-16 18:20:00,
2013-02-16 12:25:00,21.7,8.4,30.18,NW,319,12.0,12.0,56,0.00,SCT,,0.00,301.0,WeatherDisplay:10.37,2013-02-16 18:25:00,
2013-02-16 12:30:00,20.7,6.7,30.20,NW,322,6.9,7.4,54,0.00,SCT,,0.00,271.0,WeatherDisplay:10.37,2013-02-16 18:30:00,
2013-02-16 12:35:00,20.7,6.7,30.20,NW,322,6.9,7.4,54,0.00,BKN,,0.00,271.0,WeatherDisplay:10.37,2013-02-16 18:35:00,
2013-02-16 12:40:00,20.7,6.7,30.20,NW,322,6.9,7.4,54,0.00,BKN,,0.00,271.0,WeatherDisplay:10.37,2013-02-16 18:40:00,
2013-02-16 12:45:00,20.7,6.7,30.20,NW,322,6.9,7.4,54,0.00,BKN,,0.00,271.0,WeatherDisplay:10.37,2013-02-16 18:45:00,
2013-02-16 12:50:00,20.7,6.7,30.20,NW,322,6.9,7.4,54,0.00,OVC,,0.00,271.0,WeatherDisplay:10.37,2013-02-16 18:50:00,
2013-02-16 12:55:00,20.7,6.7,30.20,NW,322,6.9,7.4,54,0.00,OVC,,0.00,271.0,WeatherDisplay:10.37,2013-02-16 18:55:00,
2013-02-16 13:00:00,21.8,8.5,30.17,NW,321,12.7,12.7,56,0.00,OVC,,0.00,332.0,WeatherDisplay:10.37,2013-02-16 19:00:00,
2013-02-16 13:05:00,21.9,9.4,30.17,NW,309,11.0,11.0,58,0.00,OVC,,0.00,204.0,WeatherDisplay:10.37,2013-02-16 19:05:00,
2013-02-16 13:10:00,21.7,8.8,30.17,WNW,302,12.0,12.0,57,0.00,OVC,,0.00,239.0,WeatherDisplay:10.37,2013-02-16 19:10:00,
2013-02-16 13:15:00,21.4,8.1,30.17,WNW,302,17.3,17.3,56,0.00,OVC,,0.00,239.0,WeatherDisplay:10.37,2013-02-16 19:15:00,
2013-02-16 13:21:00,21.4,8.5,30.17,West,274,8.1,8.1,57,0.00,OVC,,0.00,304.0,WeatherDisplay:10.37,2013-02-16 19:21:00,
2013-02-16 13:26:00,20.7,6.7,30.20,NW,322,6.9,7.4,54,0.00,OVC,,0.00,271.0,WeatherDisplay:10.37,2013-02-16 19:26:00,
2013-02-16 13:31:00,20.7,6.7,30.20,NW,322,6.9,7.4,54,0.00,OVC,,0.00,271.0,WeatherDisplay:10.37,2013-02-16 19:31:00,
2013-02-16 13:36:00,22.5,9.5,30.16,NW,323,11.5,11.5,57,0.00,OVC,,0.00,294.0,WeatherDisplay:10.37,2013-02-16 19:36:00,
2013-02-16 13:41:00,22.7,8.9,30.16,SW,234,12.7,12.7,55,0.00,OVC,,0.00,229.0,WeatherDisplay:10.37,2013-02-16 19:41:00,
2013-02-16 13:46:00,20.7,6.7,30.20,NW,322,6.9,7.4,54,0.00,OVC,,0.00,271.0,WeatherDisplay:10.37,2013-02-16 19:46:00,
2013-02-16 13:51:00,20.7,6.7,30.20,NW,322,6.9,7.4,54,0.00,OVC,,0.00,271.0,WeatherDisplay:10.37,2013-02-16 19:51:00,
2013-02-16 13:56:00,20.7,6.7,30.20,NW,322,6.9,7.4,54,0.00,OVC,,0.00,271.0,WeatherDisplay:10.37,2013-02-16 19:56:00,
2013-02-16 14:01:00,21.9,8.2,30.16,WNW,302,8.1,8.1,55,0.00,OVC,,0.00,279.0,WeatherDisplay:10.37,2013-02-16 20:01:00,
2013-02-16 14:06:00,22.6,10.4,30.16,West,273,15.0,15.0,59,0.00,OVC,,0.00,193.0,WeatherDisplay:10.37,2013-02-16 20:06:00,
2013-02-16 14:11:00,22.2,9.7,30.16,NW,323,11.5,11.5,58,0.00,OVC,,0.00,292.0,WeatherDisplay:10.37,2013-02-16 20:11:00,
2013-02-16 14:16:00,20.7,6.7,30.20,NW,322,6.9,7.4,54,0.00,OVC,,0.00,271.0,WeatherDisplay:10.37,2013-02-16 20:16:00,
2013-02-16 14:21:00,20.7,6.7,30.20,NW,322,6.9,7.4,54,0.00,OVC,,0.00,271.0,WeatherDisplay:10.37,2013-02-16 20:21:00,
2013-02-16 14:26:00,20.7,6.7,30.20,NW,322,6.9,7.4,54,0.00,OVC,,0.00,271.0,WeatherDisplay:10.37,2013-02-16 20:26:00,
2013-02-16 14:31:00,22.1,10.7,30.15,NW,309,11.5,11.5,61,0.00,OVC,,0.00,153.0,WeatherDisplay:10.37,2013-02-16 20:31:00,
2013-02-16 14:36:00,22.1,10.3,30.15,WNW,302,9.2,9.2,60,0.00,OVC,,0.00,158.0,WeatherDisplay:10.37,2013-02-16 20:36:00,
2013-02-16 14:41:00,22.2,10.4,30.15,NW,319,11.5,11.5,60,0.00,OVC,,0.00,146.0,WeatherDisplay:10.37,2013-02-16 20:41:00,
2013-02-16 14:46:00,22.2,9.7,30.15,NW,305,17.3,17.3,58,0.00,OVC,,0.00,162.0,WeatherDisplay:10.37,2013-02-16 20:46:00,
2013-02-16 14:51:00,22.4,10.2,30.15,NW,318,8.1,8.1,59,0.00,OVC,,0.00,158.0,WeatherDisplay:10.37,2013-02-16 20:51:00,
2013-02-16 14:56:00,22.7,10.5,30.15,NW,315,15.0,15.0,59,0.00,OVC,,0.00,155.0,WeatherDisplay:10.37,2013-02-16 20:56:00,
2013-02-16 15:01:00,22.1,10.3,30.15,NW,309,8.1,11.1,60,0.00,OVC,,0.00,151.0,WeatherDisplay:10.37,2013-02-16 21:01:00,
2013-02-16 15:06:00,22.1,10.3,30.15,NW,309,8.1,11.1,60,0.00,OVC,,0.00,151.0,WeatherDisplay:10.37,2013-02-16 21:06:00,
2013-02-16 15:11:00,23.1,10.5,30.15,West,278,12.7,12.7,58,0.00,OVC,,0.00,186.0,WeatherDisplay:10.37,2013-02-16 21:11:00,
2013-02-16 15:16:00,23.1,10.1,30.15,WNW,289,19.6,19.6,57,0.00,OVC,,0.00,162.0,WeatherDisplay:10.37,2013-02-16 21:16:00,
2013-02-16 15:21:00,22.1,10.3,30.15,NW,309,8.1,11.1,60,0.00,OVC,,0.00,151.0,WeatherDisplay:10.37,2013-02-16 21:21:00,
2013-02-16 15:26:00,22.1,10.3,30.15,NW,309,8.1,11.1,60,0.00,OVC,,0.00,151.0,WeatherDisplay:10.37,2013-02-16 21:26:00,
2013-02-16 15:31:00,22.1,10.3,30.15,NW,309,8.1,11.1,60,0.00,OVC,,0.00,151.0,WeatherDisplay:10.37,2013-02-16 21:31:00,
2013-02-16 15:36:00,22.7,10.5,30.15,WNW,290,13.8,13.8,59,0.00,OVC,,0.00,97.0,WeatherDisplay:10.37,2013-02-16 21:36:00,
2013-02-16 15:41:00,22.1,10.3,30.15,NW,309,8.1,11.1,60,0.00,OVC,,0.00,151.0,WeatherDisplay:10.37,2013-02-16 21:41:00,
2013-02-16 15:46:00,22.1,10.3,30.15,NW,309,8.1,11.1,60,0.00,OVC,,0.00,151.0,WeatherDisplay:10.37,2013-02-16 21:46:00,
2013-02-16 15:51:00,22.6,10.8,30.15,NW,319,15.0,15.0,60,0.00,OVC,,0.00,98.0,WeatherDisplay:10.37,2013-02-16 21:51:00,
2013-02-16 15:56:00,22.4,11.7,30.16,NW,325,17.3,17.3,63,0.00,OVC,,0.00,100.0,WeatherDisplay:10.37,2013-02-16 21:56:00,
2013-02-16 16:01:00,22.3,12.3,30.15,NW,319,13.8,13.8,65,0.00,OVC,,0.00,88.0,WeatherDisplay:10.37,2013-02-16 22:01:00,
2013-02-16 16:06:00,22.1,10.3,30.15,NW,309,8.1,11.1,60,0.00,OVC,,0.00,151.0,WeatherDisplay:10.37,2013-02-16 22:06:00,
2013-02-16 16:11:00,22.1,10.3,30.15,NW,309,8.1,11.1,60,0.00,OVC,,0.00,151.0,WeatherDisplay:10.37,2013-02-16 22:11:00,
2013-02-16 16:16:00,21.7,12.1,30.16,NW,317,15.0,15.0,66,0.00,OVC,,0.00,83.0,WeatherDisplay:10.37,2013-02-16 22:16:00,
2013-02-16 16:21:00,22.1,10.3,30.15,NW,309,8.1,11.1,60,0.00,OVC,,0.00,151.0,WeatherDisplay:10.37,2013-02-16 22:21:00,
2013-02-16 16:26:00,21.7,12.1,30.16,NW,319,11.5,11.5,66,0.00,OVC,,0.00,47.0,WeatherDisplay:10.37,2013-02-16 22:26:00,
2013-02-16 16:31:00,21.3,11.7,30.16,NW,315,13.8,13.8,66,0.00,OVC,,0.00,62.0,WeatherDisplay:10.37,2013-02-16 22:31:00,
2013-02-16 16:36:00,21.1,11.8,30.16,NNW,327,13.8,13.8,67,0.00,OVC,,0.00,54.0,WeatherDisplay:10.37,2013-02-16 22:36:00,
2013-02-16 16:41:00,21.1,11.5,30.16,NW,326,13.8,13.8,66,0.00,OVC,,0.00,44.0,WeatherDisplay:10.37,2013-02-16 22:41:00,
2013-02-16 16:46:00,21.1,11.2,30.16,NW,320,11.5,11.5,65,0.00,OVC,,0.00,33.0,WeatherDisplay:10.37,2013-02-16 22:46:00,
2013-02-16 16:51:00,21.0,10.7,30.16,NW,322,16.1,16.1,64,0.00,OVC,,0.00,35.0,WeatherDisplay:10.37,2013-02-16 22:51:00,
2013-02-16 16:56:00,22.1,10.3,30.15,NW,309,8.1,11.1,60,0.00,OVC,,0.00,151.0,WeatherDisplay:10.37,2013-02-16 22:56:00,
2013-02-16 17:01:00,22.1,10.3,30.15,NW,309,8.1,11.1,60,0.00,OVC,,0.00,151.0,WeatherDisplay:10.37,2013-02-16 23:01:00,
2013-02-16 17:06:00,20.5,10.2,30.16,NNW,330,15.0,15.0,64,0.00,OVC,,0.00,19.0,WeatherDisplay:10.37,2013-02-16 23:06:00,
2013-02-16 17:11:00,20.4,10.1,30.17,WNW,298,14.0,14.0,64,0.00,OVC,,0.00,11.0,WeatherDisplay:10.37,2013-02-16 23:11:00,
2013-02-16 17:16:00,20.3,10.1,30.17,NNW,329,11.5,11.5,64,0.00,OVC,,0.00,7.0,WeatherDisplay:10.37,2013-02-16 23:16:00,
2013-02-16 17:21:00,20.2,9.6,30.17,NNW,329,15.0,15.0,63,0.00,OVC,,0.00,5.0,WeatherDisplay:10.37,2013-02-16 23:21:00,
2013-02-16 17:26:00,19.9,9.7,30.17,NNW,327,13.8,13.8,64,0.00,OVC,,0.00,0.0,WeatherDisplay:10.37,2013-02-16 23:26:00,
2013-02-16 17:31:00,19.8,9.6,30.17,NNW,335,17.3,17.3,64,0.00,BKN,,0.00,0.0,WeatherDisplay:10.37,2013-02-16 23:31:00,
2013-02-16 17:36:00,19.6,9.4,30.17,NNW,329,12.7,12.7,64,0.00,BKN,,0.00,0.0,WeatherDisplay:10.37,2013-02-16 23:36:00,
2013-02-16 17:41:00,19.6,9.7,30.17,NW,312,10.0,10.0,65,0.00,BKN,,0.00,0.0,WeatherDisplay:10.37,2013-02-16 23:41:00,
2013-02-16 17:46:00,19.4,9.2,30.18,WNW,302,15.0,15.0,64,0.00,BKN,,0.00,0.0,WeatherDisplay:10.37,2013-02-16 23:46:00,
2013-02-16 17:51:00,19.1,8.9,30.18,NNW,332,14.0,14.0,64,0.00,BKN,,0.00,0.0,WeatherDisplay:10.37,2013-02-16 23:51:00,
2013-02-16 17:56:00,18.8,8.6,30.18,NNW,331,18.4,18.4,64,0.00,BKN,,0.00,0.0,WeatherDisplay:10.37,2013-02-16 23:56:00,
2013-02-16 18:02:00,18.5,8.0,30.18,NW,309,16.1,16.1,63,0.00,OVC,,0.00,0.0,WeatherDisplay:10.37,2013-02-17 00:02:00,
2013-02-16 18:07:00,18.2,8.1,30.19,NW,323,13.8,13.8,64,0.00,OVC,,0.00,0.0,WeatherDisplay:10.37,2013-02-17 00:07:00,
2013-02-16 18:12:00,19.6,9.7,30.17,NNW,335,8.1,8.1,65,0.00,OVC,,0.00,0.0,WeatherDisplay:10.37,2013-02-17 00:12:00,
2013-02-16 18:17:00,19.6,9.7,30.17,NNW,335,8.1,8.1,65,0.00,BKN,,0.00,0.0,WeatherDisplay:10.37,2013-02-17 00:17:00,
2013-02-16 18:22:00,17.6,7.8,30.19,WNW,287,11.5,11.5,65,0.00,BKN,,0.00,0.0,WeatherDisplay:10.37,2013-02-17 00:22:00,
2013-02-16 18:27:00,17.5,7.7,30.20,NNW,329,11.5,11.5,65,0.00,BKN,,0.00,0.0,WeatherDisplay:10.37,2013-02-17 00:27:00,
2013-02-16 18:32:00,17.3,7.9,30.20,NW,323,11.5,11.5,66,0.00,SCT,,0.00,0.0,WeatherDisplay:10.37,2013-02-17 00:32:00,
2013-02-16 18:37:00,17.1,7.7,30.20,NNW,329,11.5,11.5,66,0.00,SCT,,0.00,0.0,WeatherDisplay:10.37,2013-02-17 00:37:00,
2013-02-16 18:42:00,17.0,8.3,30.20,NW,314,11.5,11.5,68,0.00,SCT,,0.00,0.0,WeatherDisplay:10.37,2013-02-17 00:42:00,
2013-02-16 18:47:00,16.8,8.7,30.20,NW,316,10.4,10.4,70,0.00,SCT,,0.00,0.0,WeatherDisplay:10.37,2013-02-17 00:47:00,
2013-02-16 18:52:00,17.0,8.3,30.20,NW,319,8.1,8.1,68,0.00,SCT,,0.00,0.0,WeatherDisplay:10.37,2013-02-17 00:52:00,
2013-02-16 18:57:00,17.0,8.3,30.20,NW,319,8.1,8.1,68,0.00,SCT,,0.00,0.0,WeatherDisplay:10.37,2013-02-17 00:57:00,
2013-02-16 19:02:00,17.0,8.3,30.20,NW,319,8.1,8.1,68,0.00,SCT,,0.00,0.0,WeatherDisplay:10.37,2013-02-17 01:02:00,
2013-02-16 19:07:00,17.0,8.3,30.20,NW,319,8.1,8.1,68,0.00,SCT,,0.00,0.0,WeatherDisplay:10.37,2013-02-17 01:07:00,
2013-02-16 19:12:00,16.2,7.8,30.21,North,349,9.0,9.4,69,0.00,SCT,,0.00,0.0,WeatherDisplay:10.37,2013-02-17 01:12:00,
2013-02-16 19:17:00,16.1,7.7,30.21,NNW,336,10.4,10.4,69,0.00,SCT,,0.00,0.0,WeatherDisplay:10.37,2013-02-17 01:17:00,
2013-02-16 19:22:00,15.9,7.5,30.21,NW,326,11.5,11.5,69,0.00,BKN,,0.00,0.0,WeatherDisplay:10.37,2013-02-17 01:22:00,
2013-02-16 19:27:00,15.8,7.1,30.21,NW,325,14.0,14.0,68,0.00,BKN,,0.00,0.0,WeatherDisplay:10.37,2013-02-17 01:27:00,
2013-02-16 19:32:00,15.9,7.5,30.21,NW,326,13.8,13.8,69,0.00,BKN,,0.00,0.0,WeatherDisplay:10.37,2013-02-17 01:32:00,
2013-02-16 19:37:00,15.9,7.5,30.21,NW,326,13.8,13.8,69,0.00,BKN,,0.00,0.0,WeatherDisplay:10.37,2013-02-17 01:37:00,
2013-02-16 19:42:00,15.9,7.5,30.21,NW,326,13.8,13.8,69,0.00,BKN,,0.00,0.0,WeatherDisplay:10.37,2013-02-17 01:42:00,
2013-02-16 19:47:00,15.3,7.3,30.21,NNW,327,10.4,10.4,70,0.00,SCT,,0.00,0.0,WeatherDisplay:10.37,2013-02-17 01:47:00,
2013-02-16 19:52:00,15.9,7.5,30.21,NW,326,13.8,13.8,69,0.00,SCT,,0.00,0.0,WeatherDisplay:10.37,2013-02-17 01:52:00,
2013-02-16 19:57:00,15.9,7.5,30.21,NW,326,13.8,13.8,69,0.00,SCT,,0.00,0.0,WeatherDisplay:10.37,2013-02-17 01:57:00,
2013-02-16 20:02:00,14.9,7.2,30.22,NNW,347,11.5,11.5,71,0.00,SCT,,0.00,0.0,WeatherDisplay:10.37,2013-02-17 02:02:00,
2013-02-16 20:07:00,14.8,7.1,30.22,NNW,340,9.2,9.2,71,0.00,SCT,,0.00,0.0,WeatherDisplay:10.37,2013-02-17 02:07:00,
2013-02-16 20:12:00,15.9,7.5,30.21,NW,326,13.8,13.8,69,0.00,SCT,,0.00,0.0,WeatherDisplay:10.37,2013-02-17 02:12:00,
2013-02-16 20:17:00,14.5,6.8,30.22,NNW,344,9.2,9.2,71,0.00,SCT,,0.00,0.0,WeatherDisplay:10.37,2013-02-17 02:17:00,
2013-02-16 20:22:00,15.9,7.5,30.21,NW,326,13.8,13.8,69,0.00,SCT,,0.00,0.0,WeatherDisplay:10.37,2013-02-17 02:22:00,
2013-02-16 20:27:00,14.3,6.6,30.22,NNW,340,9.2,9.2,71,0.00,SCT,,0.00,0.0,WeatherDisplay:10.37,2013-02-17 02:27:00,
2013-02-16 20:32:00,14.2,6.5,30.22,North,350,10.4,10.4,71,0.00,BKN,,0.00,0.0,WeatherDisplay:10.37,2013-02-17 02:32:00,
2013-02-16 20:37:00,14.1,6.1,30.22,NNW,328,10.4,10.4,70,0.00,BKN,,0.00,0.0,WeatherDisplay:10.37,2013-02-17 02:37:00,
2013-02-16 20:42:00,14.0,6.0,30.23,NW,326,9.2,9.2,70,0.00,BKN,,0.00,0.0,WeatherDisplay:10.37,2013-02-17 02:42:00,
2013-02-16 20:47:00,13.9,5.6,30.23,NNW,337,9.2,9.2,69,0.00,BKN,,0.00,0.0,WeatherDisplay:10.37,2013-02-17 02:47:00,
2013-02-16 20:52:00,13.7,5.7,30.23,NNW,335,9.0,9.0,70,0.00,BKN,,0.00,0.0,WeatherDisplay:10.37,2013-02-17 02:52:00,
2013-02-16 20:57:00,15.9,7.5,30.21,NW,326,13.8,13.8,69,0.00,BKN,,0.00,0.0,WeatherDisplay:10.37,2013-02-17 02:57:00,
2013-02-16 21:03:00,13.4,5.7,30.23,NNW,333,8.1,8.1,71,0.00,BKN,,0.00,0.0,WeatherDisplay:10.37,2013-02-17 03:03:00,
2013-02-16 21:08:00,13.4,5.7,30.23,NNW,333,5.8,6.0,71,0.00,BKN,,0.00,0.0,WeatherDisplay:10.37,2013-02-17 03:08:00,
2013-02-16 21:13:00,13.0,5.7,30.24,NNW,340,6.0,6.0,72,0.00,BKN,,0.00,0.0,WeatherDisplay:10.37,2013-02-17 03:13:00,
2013-02-16 21:18:00,12.9,5.6,30.24,NNW,342,5.8,5.8,72,0.00,SCT,,0.00,0.0,WeatherDisplay:10.37,2013-02-17 03:18:00,
2013-02-16 21:23:00,12.8,5.5,30.24,NNW,340,3.5,3.7,72,0.00,SCT,,0.00,0.0,WeatherDisplay:10.37,2013-02-17 03:23:00,
2013-02-16 21:28:00,12.8,5.2,30.23,NNW,341,5.8,5.8,71,0.00,SCT,,0.00,0.0,WeatherDisplay:10.37,2013-02-17 03:28:00,
2013-02-16 21:33:00,12.8,5.5,30.24,NNW,340,5.8,5.8,72,0.00,SCT,,0.00,0.0,WeatherDisplay:10.37,2013-02-17 03:33:00,
2013-02-16 21:38:00,12.8,5.5,30.23,NNW,339,3.5,4.4,72,0.00,SCT,,0.00,0.0,WeatherDisplay:10.37,2013-02-17 03:38:00,
2013-02-16 21:43:00,12.7,5.4,30.23,NNW,338,4.6,4.6,72,0.00,SCT,,0.00,0.0,WeatherDisplay:10.37,2013-02-17 03:43:00,
2013-02-16 21:48:00,12.6,5.3,30.24,NNW,335,5.8,5.8,72,0.00,SCT,,0.00,0.0,WeatherDisplay:10.37,2013-02-17 03:48:00,
2013-02-16 21:53:00,12.8,5.5,30.23,NNW,339,3.5,4.4,72,0.00,SCT,,0.00,0.0,WeatherDisplay:10.37,2013-02-17 03:53:00,
2013-02-16 21:58:00,12.8,5.5,30.23,NNW,339,3.5,4.4,72,0.00,SCT,,0.00,0.0,WeatherDisplay:10.37,2013-02-17 03:58:00,
2013-02-16 22:03:00,12.4,5.1,30.24,NNW,344,4.6,4.6,72,0.00,SCT,,0.00,0.0,WeatherDisplay:10.37,2013-02-17 04:03:00,
2013-02-16 22:08:00,12.8,5.5,30.23,NNW,339,3.5,4.4,72,0.00,SCT,,0.00,0.0,WeatherDisplay:10.37,2013-02-17 04:08:00,
2013-02-16 22:13:00,12.0,5.0,30.23,North,350,4.6,4.6,73,0.00,SCT,,0.00,0.0,WeatherDisplay:10.37,2013-02-17 04:13:00,
2013-02-16 22:18:00,12.8,5.5,30.23,NNW,339,3.5,4.4,72,0.00,SCT,,0.00,0.0,WeatherDisplay:10.37,2013-02-17 04:18:00,
2013-02-16 22:23:00,12.8,5.5,30.23,NNW,339,3.5,4.4,72,0.00,SCT,,0.00,0.0,WeatherDisplay:10.37,2013-02-17 04:23:00,
2013-02-16 22:28:00,12.8,5.5,30.23,NNW,339,3.5,4.4,72,0.00,SCT,,0.00,0.0,WeatherDisplay:10.37,2013-02-17 04:28:00,
2013-02-16 22:33:00,11.3,4.6,30.23,NW,322,4.6,4.6,74,0.00,BKN,,0.00,0.0,WeatherDisplay:10.37,2013-02-17 04:33:00,
2013-02-16 22:38:00,11.5,4.8,30.23,NW,312,6.9,6.9,74,0.00,BKN,,0.00,0.0,WeatherDisplay:10.37,2013-02-17 04:38:00,
2013-02-16 22:43:00,12.8,5.5,30.23,NNW,339,3.5,4.4,72,0.00,BKN,,0.00,0.0,WeatherDisplay:10.37,2013-02-17 04:43:00,
2013-02-16 22:48:00,12.8,5.5,30.23,NNW,339,3.5,4.4,72,0.00,SCT,,0.00,0.0,WeatherDisplay:10.37,2013-02-17 04:48:00,
2013-02-16 22:53:00,12.2,4.9,30.23,NNW,328,6.0,6.0,72,0.00,SCT,,0.00,0.0,WeatherDisplay:10.37,2013-02-17 04:53:00,
2013-02-16 22:58:00,12.2,4.6,30.23,NW,323,7.0,7.0,71,0.00,SCT,,0.00,0.0,WeatherDisplay:10.37,2013-02-17 04:58:00,
2013-02-16 23:00:00,12.8,5.5,30.23,NNW,339,3.5,4.4,72,0.00,SCT,,0.00,0.0,WeatherDisplay:10.37,2013-02-17 05:00:00,
2013-02-16 23:05:00,12.3,4.7,30.23,NNW,336,7.0,7.0,71,0.00,SCT,,0.00,0.0,WeatherDisplay:10.37,2013-02-17 05:05:00,
2013-02-16 23:10:00,12.3,4.7,30.22,NNW,336,6.9,6.9,71,0.00,SCT,,0.00,0.0,WeatherDisplay:10.37,2013-02-17 05:10:00,
2013-02-16 23:15:00,12.4,4.8,30.22,NW,320,6.9,6.9,71,0.00,SCT,,0.00,0.0,WeatherDisplay:10.37,2013-02-17 05:15:00,
2013-02-16 23:20:00,12.4,4.8,30.22,NNW,330,6.0,6.0,71,0.00,SCT,,0.00,0.0,WeatherDisplay:10.37,2013-02-17 05:20:00,
2013-02-16 23:25:00,12.4,4.8,30.23,NNW,329,6.9,6.9,71,0.00,SCT,,0.00,0.0,WeatherDisplay:10.37,2013-02-17 05:25:00,
2013-02-16 23:30:00,12.2,4.6,30.23,NW,322,5.8,5.8,71,0.00,SCT,,0.00,0.0,WeatherDisplay:10.37,2013-02-17 05:30:00,
2013-02-16 23:35:00,12.2,4.6,30.23,NW,320,6.9,6.9,71,0.00,SCT,,0.00,0.0,WeatherDisplay:10.37,2013-02-17 05:35:00,
2013-02-16 23:40:00,12.3,4.7,30.23,NNW,331,5.8,5.8,71,0.00,SCT,,0.00,0.0,WeatherDisplay:10.37,2013-02-17 05:40:00,
2013-02-16 23:45:00,11.9,4.6,30.23,NNW,342,5.8,5.8,72,0.00,SCT,,0.00,0.0,WeatherDisplay:10.37,2013-02-17 05:45:00,
2013-02-16 23:50:00,12.3,4.7,30.23,NNW,331,5.8,5.8,71,0.00,CLR,,0.00,0.0,WeatherDisplay:10.37,2013-02-17 05:50:00,
2013-02-16 23:55:00,12.3,4.7,30.23,NNW,331,5.8,5.8,71,0.00,CLR,,0.00,0.0,WeatherDisplay:10.37,2013-02-17 05:55:00,